createdAt,value
2023-02-25T00:03:56.875Z,100773.97
2023-02-25T00:09:01.981Z,100781.56
2023-02-25T00:14:05.917Z,100775.13
2023-02-25T00:19:10.555Z,100776.34
2023-02-25T00:24:17.168Z,100770.81
2023-02-25T00:29:22.162Z,100774.59
2023-02-25T00:34:26.179Z,100764.06
2023-02-25T00:39:42.941Z,100768.72
2023-02-25T00:44:48.168Z,100768.50
2023-02-25T00:49:52.402Z,100797.28
2023-02-25T00:54:57.563Z,100751.94
2023-02-25T01:00:01.383Z,100764.25
2023-02-25T01:05:05.447Z,100765.06
2023-02-25T01:10:12.269Z,100762.37
2023-02-25T01:15:16.267Z,100765.19
2023-02-25T01:20:22.460Z,100765.53
2023-02-25T01:25:27.701Z,100772.87
2023-02-25T01:30:31.400Z,100769.75
2023-02-25T01:35:36.907Z,100769.66
2023-02-25T01:40:42.069Z,100767.66
2023-02-25T01:45:46.151Z,100774.56
2023-02-25T01:50:52.963Z,100776.09
2023-02-25T01:56:00.184Z,100779.75
2023-02-25T02:01:04.166Z,100777.66
2023-02-25T02:06:11.913Z,100780.88
2023-02-25T02:11:18.331Z,100786.22
2023-02-25T02:16:54.862Z,100787.44
2023-02-25T02:22:08.384Z,100790.78
2023-02-25T02:27:15.622Z,100786.00
2023-02-25T02:32:32.356Z,100785.13
2023-02-25T02:37:43.739Z,100788.22
2023-02-25T02:42:58.481Z,100786.41
2023-02-25T02:48:07.426Z,100796.75
2023-02-25T02:53:17.546Z,100787.09
2023-02-25T02:58:27.166Z,100780.88
2023-02-25T03:03:37.933Z,100784.78
2023-02-25T03:08:45.730Z,100784.56
2023-02-25T03:13:51.514Z,100791.91
2023-02-25T03:19:01.004Z,100795.12
2023-02-25T03:24:09.554Z,100799.97
2023-02-25T03:29:17.747Z,100795.88
2023-02-25T03:34:25.890Z,100790.56
2023-02-25T03:39:33.087Z,100789.56
2023-02-25T03:44:42.400Z,100793.66
2023-02-25T03:49:51.698Z,100794.75
2023-02-25T03:54:57.570Z,100795.75
2023-02-25T04:00:02.223Z,100793.88
2023-02-25T04:05:08.812Z,100796.84
2023-02-25T04:10:14.552Z,100802.41
2023-02-25T04:15:19.022Z,100806.19
2023-02-25T04:20:24.775Z,100797.94
2023-02-25T04:25:29.007Z,100796.28
2023-02-25T04:30:34.389Z,100804.62
2023-02-25T04:35:40.454Z,100821.84
2023-02-25T04:40:44.155Z,100815.06
2023-02-25T04:45:48.172Z,100815.53
2023-02-25T04:50:53.171Z,100824.31
2023-02-25T04:55:56.854Z,100833.44
2023-02-25T05:01:01.552Z,100829.87
2023-02-25T05:06:08.911Z,100831.00
2023-02-25T05:11:12.713Z,100835.44
2023-02-25T05:16:18.585Z,100832.88
2023-02-25T05:21:25.971Z,100824.88
2023-02-25T05:26:29.754Z,100832.44
2023-02-25T05:31:33.602Z,100823.66
2023-02-25T05:36:38.713Z,100838.66
2023-02-25T05:41:42.535Z,100835.66
2023-02-25T05:46:46.292Z,100833.22
2023-02-25T05:51:51.868Z,100831.75
2023-02-25T05:56:55.542Z,100832.34
2023-02-25T06:01:59.295Z,100846.44
2023-02-25T06:07:04.689Z,100839.00
2023-02-25T06:12:09.206Z,100854.78
2023-02-25T06:17:12.891Z,100856.09
2023-02-25T06:22:17.883Z,100858.06
2023-02-25T06:27:22.209Z,100856.75
2023-02-25T06:32:26.025Z,100861.72
2023-02-25T06:37:31.128Z,100863.19
2023-02-25T06:42:34.908Z,100864.16
2023-02-25T06:47:38.620Z,100862.62
2023-02-25T06:52:43.698Z,100871.94
2023-02-25T06:57:47.415Z,100873.50
2023-02-25T07:02:51.588Z,100879.38
2023-02-25T07:07:56.713Z,100884.28
2023-02-25T07:13:00.787Z,100887.81
2023-02-25T07:18:05.120Z,100886.25
2023-02-25T07:23:10.159Z,100906.16
2023-02-25T07:28:13.905Z,100903.97
2023-02-25T07:33:17.612Z,100908.63
2023-02-25T07:38:22.761Z,100919.53
2023-02-25T07:43:26.460Z,100914.19
2023-02-25T07:48:30.434Z,100921.53
2023-02-25T07:53:35.825Z,100937.03
2023-02-25T07:58:40.331Z,100939.03
2023-02-25T08:03:44.019Z,100935.37
2023-02-25T08:08:50.831Z,100942.59
2023-02-25T08:13:55.131Z,100935.56
2023-02-25T08:18:59.336Z,100946.44
2023-02-25T08:24:04.558Z,100940.22
2023-02-25T08:29:08.611Z,100936.84
2023-02-25T08:34:12.318Z,100947.41
2023-02-25T08:39:18.386Z,100950.50
2023-02-25T08:44:22.542Z,100954.78
2023-02-25T08:49:26.385Z,100955.03
2023-02-25T08:54:31.546Z,100951.31
2023-02-25T08:59:36.805Z,100959.50
2023-02-25T09:04:40.600Z,100965.16
2023-02-25T09:09:45.685Z,100967.34
2023-02-25T09:14:50.219Z,100969.59
2023-02-25T09:19:53.972Z,100976.56
2023-02-25T09:24:59.177Z,100984.88
2023-02-25T09:30:02.990Z,100983.69
2023-02-25T09:35:07.783Z,100995.94
2023-02-25T09:40:18.037Z,100995.72
2023-02-25T09:45:25.735Z,100997.22
2023-02-25T09:50:34.028Z,101003.84
2023-02-25T09:55:41.062Z,101012.56
2023-02-25T10:00:49.155Z,101020.37
2023-02-25T10:06:01.505Z,101018.62
2023-02-25T10:11:12.683Z,101025.12
2023-02-25T10:16:36.092Z,101022.28
2023-02-25T10:21:55.097Z,101023.84
2023-02-25T10:27:11.299Z,101038.28
2023-02-25T10:32:20.824Z,101035.78
2023-02-25T10:37:29.910Z,101033.44
2023-02-25T10:42:35.112Z,101038.91
2023-02-25T10:47:41.741Z,101039.25
2023-02-25T10:52:56.997Z,101066.03
2023-02-25T10:58:02.092Z,101063.87
2023-02-25T11:03:06.142Z,101063.59
2023-02-25T11:08:27.822Z,101063.06
2023-02-25T11:13:36.891Z,101075.50
2023-02-25T11:18:42.032Z,101095.63
2023-02-25T11:23:48.853Z,101109.78
2023-02-25T11:28:54.529Z,101100.06
2023-02-25T11:34:01.173Z,101074.09
2023-02-25T11:39:14.606Z,101079.25
2023-02-25T11:44:24.114Z,101094.56
2023-02-25T11:49:38.344Z,101097.63
2023-02-25T11:54:53.027Z,101097.97
2023-02-25T12:00:11.909Z,101096.44
2023-02-25T12:05:28.051Z,101097.94
2023-02-25T12:11:00.823Z,101097.41
2023-02-25T12:16:41.093Z,101084.22
2023-02-25T12:22:14.856Z,101074.06
2023-02-25T12:27:58.925Z,101078.50
2023-02-25T12:33:11.161Z,101086.19
2023-02-25T12:38:50.184Z,101098.69
2023-02-25T12:44:01.000Z,101107.00
2023-02-25T12:49:31.662Z,101098.88
2023-02-25T12:55:01.149Z,101097.13
2023-02-25T13:00:45.937Z,101098.47
2023-02-25T13:06:04.302Z,101103.31
2023-02-25T13:11:19.027Z,101102.16
2023-02-25T13:16:48.667Z,101103.66
2023-02-25T13:22:04.526Z,101122.00
2023-02-25T13:27:28.305Z,101116.75
2023-02-25T13:32:39.715Z,101129.50
2023-02-25T13:37:52.440Z,101122.66
2023-02-25T13:43:09.114Z,101126.22
2023-02-25T13:48:39.009Z,101118.03
2023-02-25T13:53:59.009Z,101110.66
2023-02-25T13:59:23.491Z,101120.19
2023-02-25T14:05:00.397Z,101119.97
2023-02-25T14:10:41.176Z,101132.09
2023-02-25T14:15:59.927Z,101142.31
2023-02-25T14:21:22.712Z,101154.72
2023-02-25T14:26:35.472Z,101147.06
2023-02-25T14:31:58.764Z,101156.25
2023-02-25T14:37:27.510Z,101187.09
2023-02-25T14:42:47.700Z,101181.91
2023-02-25T14:48:01.148Z,101170.56
2023-02-25T14:53:45.473Z,101181.84
2023-02-25T14:59:11.405Z,101178.22
2023-02-25T15:04:45.856Z,101192.34
2023-02-25T15:10:27.956Z,101209.25
2023-02-25T15:15:59.088Z,101202.13
2023-02-25T15:21:38.192Z,101214.06
2023-02-25T15:26:45.925Z,101232.41
2023-02-25T15:32:16.521Z,101235.72
2023-02-25T15:37:28.132Z,101238.94
2023-02-25T15:42:43.158Z,101244.38
2023-02-25T15:47:48.715Z,101247.78
2023-02-25T15:52:57.764Z,101262.66
2023-02-25T15:58:01.668Z,101272.91
2023-02-25T16:03:27.236Z,101270.06
2023-02-25T16:08:39.672Z,101271.63
2023-02-25T16:13:44.063Z,101280.91
2023-02-25T16:18:50.594Z,101294.16
2023-02-25T16:23:56.270Z,101298.72
2023-02-25T16:29:10.917Z,101310.44
2023-02-25T16:34:22.789Z,101318.97
2023-02-25T16:39:29.398Z,101331.47
2023-02-25T16:44:38.948Z,101341.91
2023-02-25T16:49:46.867Z,101348.59
2023-02-25T16:54:57.613Z,101353.72
2023-02-25T17:00:21.406Z,101377.47
2023-02-25T17:05:29.100Z,101379.63
2023-02-25T17:10:43.439Z,101388.06
2023-02-25T17:15:47.207Z,101392.31
2023-02-25T17:20:51.397Z,101393.63
2023-02-25T17:25:59.121Z,101388.41
2023-02-25T17:31:09.232Z,101398.97
2023-02-25T17:36:15.069Z,101402.25
2023-02-25T17:41:22.328Z,101411.97
2023-02-25T17:46:36.082Z,101411.03
2023-02-25T17:51:39.851Z,101423.63
2023-02-25T17:56:45.745Z,101438.69
2023-02-25T18:01:54.442Z,101455.62
2023-02-25T18:06:58.306Z,101459.91
2023-02-25T18:12:05.937Z,101463.50
2023-02-25T18:17:26.362Z,101471.53
2023-02-25T18:22:35.747Z,101485.16
2023-02-25T18:27:40.848Z,101500.84
2023-02-25T18:32:44.579Z,101500.53
2023-02-25T18:37:50.677Z,101502.97
2023-02-25T18:42:55.711Z,101517.03
2023-02-25T18:48:00.282Z,101518.31
2023-02-25T18:53:04.933Z,101521.22
2023-02-25T18:58:15.108Z,101531.34
2023-02-25T19:03:25.260Z,101533.62
2023-02-25T19:08:29.013Z,101535.25
2023-02-25T19:13:36.125Z,101535.78
2023-02-25T19:18:41.437Z,101543.66
2023-02-25T19:23:45.134Z,101542.59
2023-02-25T19:28:50.278Z,101550.34
2023-02-25T19:33:53.977Z,101551.09
2023-02-25T19:38:57.664Z,101548.47
2023-02-25T19:44:03.490Z,101560.91
2023-02-25T19:49:07.214Z,101559.78
2023-02-25T19:54:11.135Z,101566.84
2023-02-25T19:59:16.679Z,101570.19
2023-02-25T20:04:20.428Z,101581.88
2023-02-25T20:09:24.359Z,101584.09
2023-02-25T20:14:32.741Z,101587.66
2023-02-25T20:19:36.508Z,101600.72
2023-02-25T20:24:40.332Z,101605.75
2023-02-25T20:29:45.532Z,101609.06
2023-02-25T20:34:49.728Z,101623.25
2023-02-25T20:39:55.162Z,101617.75
2023-02-25T20:45:01.761Z,101620.44
2023-02-25T20:50:08.226Z,101626.28
2023-02-25T20:55:12.209Z,101625.25
2023-02-25T21:00:20.500Z,101633.69
2023-02-25T21:05:24.253Z,101630.09
2023-02-25T21:10:28.021Z,101643.09
2023-02-25T21:15:33.058Z,101651.34
2023-02-25T21:20:36.837Z,101655.69
2023-02-25T21:25:40.512Z,101652.56
2023-02-25T21:30:45.664Z,101670.53
2023-02-25T21:35:53.293Z,101670.81
2023-02-25T21:40:57.289Z,101682.91
2023-02-25T21:46:05.177Z,101685.69
2023-02-25T21:51:15.042Z,101688.56
2023-02-25T21:56:19.081Z,101693.88
2023-02-25T22:01:26.195Z,101697.87
2023-02-25T22:06:30.131Z,101700.38
2023-02-25T22:11:36.222Z,101706.38
2023-02-25T22:16:41.533Z,101707.47
2023-02-25T22:21:46.345Z,101713.78
2023-02-25T22:26:52.023Z,101727.16
2023-02-25T22:31:57.165Z,101724.50
2023-02-25T22:37:00.932Z,101731.72
2023-02-25T22:42:04.870Z,101731.78
2023-02-25T22:47:09.930Z,101732.38
2023-02-25T22:52:13.668Z,101733.47
2023-02-25T22:57:17.421Z,101732.44
2023-02-25T23:02:22.481Z,101731.87
2023-02-25T23:07:26.712Z,101722.88
2023-02-25T23:12:31.401Z,101727.84
2023-02-25T23:17:38.363Z,101736.44
2023-02-25T23:22:42.046Z,101741.69
2023-02-25T23:27:45.722Z,101732.84
2023-02-25T23:32:50.879Z,101731.97
2023-02-25T23:37:54.766Z,101737.69
2023-02-25T23:42:58.433Z,101733.81
2023-02-25T23:48:03.511Z,101732.91
2023-02-25T23:53:07.267Z,101733.25
2023-02-25T23:58:11.148Z,101747.00
